Flight Track Log - Related Links

Times and Time Zones

All times are in EDT time to prevent confusion due to time zone crossing. See the SKW6195 flight status page for this flight to view local times or setup timezone preferences in your user account.

Time Position Orientation Groundspeed Altitude Reporting Facility
EDT Latitude Longitude Course Direction KTS MPH feet Rate Location/Type
Thu 03:34:49 PM 45.7583 -111.1247 333° Northwest 164 189 5,500  Level Salt Lake Center
Thu 03:34:52 PM 45.6447 -111.0397 152° Southeast 191 220 5,500 2,000 Level Salt Lake Center
Thu 03:35:52 PM 45.6031 -110.9831 136° Southeast 197 227 7,600 1,934 Climbing Salt Lake Center
Thu 03:36:53 PM 45.6706 -110.9925 354° North 245 282 9,400 1,721 Climbing Salt Lake Center
Thu 03:37:00 PM 45.5277 -110.8422 145° Southeast  Level Estimated
Thu 03:37:54 PM 45.5356 -110.8042 136° Southeast 298 343 11,100  Level Salt Lake Center
Thu 03:37:55 PM 45.6544 -110.8831 335° Northwest 283 326 11,100 1,600 Level Salt Lake Center
Thu 03:38:00 PM 45.4442 -110.7396 148° Southeast  Level Estimated
Thu 03:38:54 PM 45.4967 -110.6922 140° Southeast 335 386 12,700  Level Salt Lake Center
Thu 03:38:57 PM 45.6142 -110.7619 337° Northwest 321 369 12,800 1,672 Climbing Salt Lake Center
Thu 03:39:00 PM 45.3634 -110.6406 145° Southeast  Level Estimated
Thu 03:39:55 PM 45.4231 -110.6086 151° Southeast 341 392 14,400  Level Salt Lake Center
Thu 03:39:59 PM 45.5408 -110.6756 338° Northwest 337 388 14,600 2,164 Climbing Salt Lake Center
Thu 03:40:00 PM 45.2825 -110.5418 150° Southeast  Level Estimated
Thu 03:40:56 PM 45.3469 -110.5239 151° Southeast 344 396 16,600  Level Salt Lake Center
Thu 03:41:01 PM 45.4661 -110.5861 340° North 343 395 16,800 2,100 Climbing Salt Lake Center
Thu 03:41:56 PM 45.2706 -110.4392 152° Southeast 344 396 18,700 2,032 Climbing Salt Lake Center
Thu 03:42:03 PM 45.3892 -110.4989 341° North 337 388 18,900 1,869 Climbing Salt Lake Center
Thu 03:42:57 PM 45.1939 -110.3547 153° Southeast 344 396 20,600 1,742 Climbing Salt Lake Center
Thu 03:43:05 PM 45.3142 -110.4083 343° North 351 404 20,700 1,279 Climbing Salt Lake Center
Thu 03:43:58 PM 45.1147 -110.2686 154° Southeast 348 400 21,900 1,258 Climbing Salt Lake Center
Thu 03:44:07 PM 45.2389 -110.3219 343° North 351 404 22,000 1,099 Climbing Salt Lake Center
Thu 03:45:09 PM 45.1611 -110.2308 140° Southeast 363 418 23,200 1,232 Climbing Salt Lake Center
Thu 03:45:59 PM 44.9581 -110.0964 155° Southeast 371 427 24,300 1,355 Climbing Salt Lake Center
Thu 03:46:11 PM 45.0722 -110.1267 349° North 371 427 24,600 1,180 Climbing Salt Lake Center
Thu 03:47:00 PM 44.8772 -110.0058 156° South 370 426 25,500 1,065 Climbing Salt Lake Center
Thu 03:47:13 PM 44.9975 -110.0383 349° North 366 421 25,700 1,000 Climbing Salt Lake Center
Thu 03:48:00 PM 44.7942 -109.9164 157° South 364 419 26,500 871 Climbing Salt Lake Center
Thu 03:48:15 PM 44.9219 -109.9525 349° North 364 419 26,600 787 Climbing Salt Lake Center
Thu 03:49:01 PM 44.7119 -109.8300 157° South 364 419 27,300 885 Climbing Salt Lake Center
Thu 03:49:16 PM 44.8336 -109.8508 353° North 366 421 27,500 600 Climbing Salt Lake Center
Thu 03:50:01 PM 44.6289 -109.7411 159° South 371 427 27,900 581 Climbing Salt Lake Center
Thu 03:50:18 PM 44.7511 -109.7561 355° North 371 427 28,100 689 Climbing Salt Lake Center
Thu 03:51:02 PM 44.5453 -109.6497 160° South 376 433 28,600 581 Climbing Salt Lake Center
Thu 03:51:20 PM 44.6692 -109.6631 356° North 380 437 28,700 525 Climbing Salt Lake Center
Thu 03:52:22 PM 44.5886 -109.5711 141° Southeast 375 432 29,300 629 Climbing Salt Lake Center
Thu 03:53:24 PM 44.4981 -109.4675 141° Southeast 370 426 30,000 629 Climbing Salt Lake Center
Thu 03:54:26 PM 44.4119 -109.3714 141° Southeast 375 432 30,600 532 Climbing Salt Lake Center
Thu 03:55:28 PM 44.3300 -109.2808 142° Southeast 375 432 31,100 484 Climbing Salt Lake Center
Thu 03:56:30 PM 44.2492 -109.1906 141° Southeast 375 432 31,600 488 Climbing Salt Lake Center
Thu 03:57:31 PM 44.1681 -109.0994 141° Southeast 375 432 32,100 488 Climbing Salt Lake Center
Thu 03:58:33 PM 44.0864 -109.0094 142° Southeast 376 433 32,600 435 Climbing Salt Lake Center
Thu 03:59:35 PM 44.0058 -108.9194 141° Southeast 375 432 33,000 194 Climbing Salt Lake Center
Thu 04:00:37 PM 43.9064 -108.8108 142° Southeast 380 437 33,000  Level Salt Lake Center
Thu 04:01:39 PM 43.8228 -108.7169 141° Southeast 388 447 33,000  Level Salt Lake Center
Thu 04:02:40 PM 43.7381 -108.6250 142° Southeast 390 449 33,000  Level Salt Lake Center
Thu 04:03:42 PM 43.6525 -108.5311 142° Southeast 392 451 33,000  Level Salt Lake Center
Thu 04:04:44 PM 43.5661 -108.4372 142° Southeast 396 456 33,000  Level Salt Lake Center
Thu 04:05:46 PM 43.4800 -108.3436 142° Southeast 397 457 33,000  Level Salt Lake Center
Thu 04:06:47 PM 43.3747 -108.2306 142° Southeast 401 461 33,000  Level Salt Lake Center
Thu 04:07:49 PM 43.2875 -108.1372 142° Southeast 400 460 33,000  Level Salt Lake Center
Thu 04:08:51 PM 43.1997 -108.0428 142° Southeast 402 463 33,000  Level Salt Lake Center
Thu 04:09:53 PM 43.1119 -107.9489 142° Southeast 403 464 33,000  Level Salt Lake Center
Thu 04:10:54 PM 43.0231 -107.8542 142° Southeast 405 466 33,000  Level Salt Lake Center
Thu 04:11:56 PM 42.9275 -107.7511 142° Southeast 405 466 33,000  Level Salt Lake Center
Thu 04:12:58 PM 42.8428 -107.6625 143° Southeast 403 464 33,000  Level Salt Lake Center
Thu 04:14:00 PM 42.7447 -107.5581 142° Southeast 402 463 33,000  Level Salt Lake Center
Thu 04:15:01 PM 42.6586 -107.4689 143° Southeast 403 464 33,000  Level Salt Lake Center
Thu 04:16:03 PM 42.5575 -107.3633 142° Southeast 407 468 33,000  Level Salt Lake Center
Thu 04:17:05 PM 42.4711 -107.2750 143° Southeast 406 467 33,000  Level Salt Lake Center
Thu 04:18:07 PM 42.3858 -107.1858 142° Southeast 405 466 33,000  Level Salt Lake Center
Thu 04:19:06 PM 42.2853 -107.0814 142° Southeast 406 467 33,000  Level Denver Center
Thu 04:20:08 PM 42.1975 -106.9914 143° Southeast 410 472 33,000  Level Denver Center
Thu 04:21:10 PM 42.0961 -106.8906 144° Southeast 407 468 33,000  Level Denver Center
Thu 04:22:12 PM 42.0078 -106.8025 143° Southeast 410 472 33,000  Level Denver Center
Thu 04:23:14 PM 41.9058 -106.7011 143° Southeast 409 471 33,000  Level Denver Center
Thu 04:24:16 PM 41.8186 -106.6139 143° Southeast 408 470 33,000  Level Denver Center
Thu 04:25:18 PM 41.7306 -106.5272 144° Southeast 408 470 33,000  Level Denver Center
Thu 04:26:20 PM 41.6253 -106.4250 144° Southeast 404 465 33,000  Level Denver Center
Thu 04:27:23 PM 41.5372 -106.3383 144° Southeast 409 471 33,000  Level Denver Center
Thu 04:28:25 PM 41.4344 -106.2372 144° Southeast 409 471 33,000  Level Denver Center
Thu 04:29:27 PM 41.3458 -106.1528 144° Southeast 411 473 33,000 -629 Level Denver Center
Thu 04:30:29 PM 41.2403 -106.0533 145° Southeast 418 481 31,700 -1,403 Descending Denver Center
Thu 04:31:31 PM 41.1422 -105.9581 144° Southeast 446 513 30,100 -1,839 Descending Denver Center
Thu 04:32:33 PM 41.0292 -105.8483 144° Southeast 451 519 27,900 -1,984 Descending Denver Center
Thu 04:33:35 PM 40.9350 -105.7583 144° Southeast 450 518 26,000 -1,935 Descending Denver Center
Thu 04:34:37 PM 40.8367 -105.6636 144° Southeast 442 509 23,900 -2,032 Descending Denver Center
Thu 04:35:39 PM 40.7403 -105.5717 144° Southeast 432 497 21,800 -1,887 Descending Denver Center
Thu 04:36:41 PM 40.6344 -105.4694 144° Southeast 392 451 20,000 -1,452 Descending Denver Center
Thu 04:37:43 PM 40.5581 -105.3975 144° Southeast 347 399 18,800 -1,355 Descending Denver Center
Thu 04:38:45 PM 40.4731 -105.3411 153° Southeast 322 371 17,200 -1,500 Descending Denver Center
Thu 04:39:47 PM 40.3900 -105.2975 158° South 321 369 15,700 -1,392 Descending Denver Center
Thu 04:40:50 PM 40.3422 -105.2058 124° Southeast 331 381 14,300 -1,104 Descending Denver Center
Thu 04:41:52 PM 40.3297 -105.0833 98° East 318 366 13,400 -629 Descending Denver Center
Thu 04:42:54 PM 40.3225 -104.9869 96° East 277 319 13,000 -677 Descending Denver Center
Thu 04:43:56 PM 40.3150 -104.8850 95° East 264 304 12,000 -1,065 Descending Denver Center
Thu 04:44:58 PM 40.3086 -104.7931 95° East 257 296 10,800 -968 Descending Denver Center
Thu 04:46:00 PM 40.2725 -104.7256 125° Southeast 217 250 10,000 -387 Descending Denver Center
Thu 04:47:02 PM 40.2222 -104.6958 156° South 199 229 10,000 -38 Level Denver Center
Thu 04:48:38 PM 40.1333 -104.7000 182° South 174 200 9,900 -385 Descending Denver TRACON
Thu 04:49:38 PM 40.0833 -104.7000 180° South 174 200 9,000 -1,000 Descending Denver TRACON
Thu 04:50:08 PM 40.0692 -104.6942 163° South 175 201 8,400 -978 Descending Denver Center
Thu 04:51:10 PM 40.0114 -104.6947 180° South 191 220 7,500 -823 Descending Denver Center
Thu 04:52:12 PM 39.9592 -104.6953 180° South 188 216 6,700 -823 Descending Denver Center
Thu 04:53:14 PM 39.9128 -104.6958 181° South 159 183 5,800 -629 Descending Denver Center
Thu 04:54:16 PM 39.8781 -104.6961 180° South 147 169 5,400 -387 Descending Denver Center
Thu 04:56:00 PM 39.8617 -104.6732 180° South  Level Estimated
Thu 05:03:00 PM 39.8617 -104.6732 180° South  Level Estimated

Login

Don't have an account? Register now (free) for customized features, flight alerts, and more!